createdAt,value
2022-11-16T00:02:40.022Z,5.00
2022-11-16T00:07:41.799Z,4.78
2022-11-16T00:12:43.704Z,4.40
2022-11-16T00:17:45.507Z,4.03
2022-11-16T00:22:47.461Z,4.07
2022-11-16T00:27:49.370Z,4.20
2022-11-16T00:32:51.216Z,3.60
2022-11-16T00:37:54.601Z,4.25
2022-11-16T00:42:56.437Z,4.35
2022-11-16T00:48:00.581Z,3.58
2022-11-16T00:53:02.677Z,4.28
2022-11-16T00:58:04.595Z,4.47
2022-11-16T01:03:06.896Z,4.00
2022-11-16T01:08:09.039Z,4.05
2022-11-16T01:13:11.702Z,4.32
2022-11-16T01:18:13.626Z,4.38
2022-11-16T01:23:15.332Z,5.03
2022-11-16T01:28:17.491Z,4.28
2022-11-16T01:33:19.227Z,4.70
2022-11-16T01:38:23.944Z,3.42
2022-11-16T01:43:29.086Z,2.67
2022-11-16T01:48:31.391Z,2.30
2022-11-16T01:53:33.869Z,2.35
2022-11-16T01:58:36.622Z,2.00
2022-11-16T02:03:38.759Z,2.00
2022-11-16T02:09:27.195Z,2.00
2022-11-16T02:14:34.544Z,2.30
2022-11-16T02:19:42.526Z,2.20
2022-11-16T02:24:44.250Z,1.85
2022-11-16T02:29:57.602Z,1.88
2022-11-16T02:35:10.088Z,1.75
2022-11-16T02:40:15.519Z,1.55
2022-11-16T02:45:24.586Z,2.20
2022-11-16T02:50:27.601Z,2.20
2022-11-16T02:55:32.657Z,2.13
2022-11-16T03:00:43.787Z,2.35
2022-11-16T03:05:51.252Z,2.92
2022-11-16T03:11:25.371Z,2.58
2022-11-16T03:16:33.207Z,3.20
2022-11-16T03:21:47.080Z,3.15
2022-11-16T03:27:03.934Z,2.83
2022-11-16T03:32:19.078Z,3.38
2022-11-16T03:37:23.175Z,2.95
2022-11-16T03:42:27.219Z,3.67
2022-11-16T03:47:29.963Z,3.35
2022-11-16T03:52:32.014Z,3.10
2022-11-16T03:57:33.817Z,2.88
2022-11-16T04:02:35.591Z,2.75
2022-11-16T04:08:09.801Z,2.22
2022-11-16T04:13:40.530Z,3.05
2022-11-16T04:19:00.998Z,2.30
2022-11-16T04:24:14.951Z,3.00
2022-11-16T04:29:17.018Z,2.92
2022-11-16T04:34:37.203Z,3.67
2022-11-16T04:39:38.959Z,2.67
2022-11-16T04:44:59.189Z,3.03
2022-11-16T04:50:01.065Z,3.35
2022-11-16T04:55:02.983Z,2.90
2022-11-16T05:00:06.904Z,3.15
2022-11-16T05:05:09.096Z,3.20
2022-11-16T05:10:12.018Z,3.28
2022-11-16T05:15:13.915Z,3.15
2022-11-16T05:20:34.429Z,2.50
2022-11-16T05:25:37.157Z,1.60
2022-11-16T05:30:39.008Z,2.40
2022-11-16T05:35:40.928Z,2.38
2022-11-16T05:40:42.659Z,1.77
2022-11-16T05:45:44.524Z,2.22
2022-11-16T05:50:46.365Z,2.28
2022-11-16T05:55:48.203Z,2.47
2022-11-16T06:00:51.068Z,2.88
2022-11-16T06:05:55.746Z,3.10
2022-11-16T06:11:02.639Z,3.28
2022-11-16T06:16:05.322Z,3.40
2022-11-16T06:21:08.019Z,2.80
2022-11-16T06:26:10.201Z,2.35
2022-11-16T06:31:11.992Z,2.78
2022-11-16T06:36:13.944Z,2.60
2022-11-16T06:41:15.906Z,3.30
2022-11-16T06:46:17.755Z,2.47
2022-11-16T06:51:19.568Z,2.30
2022-11-16T06:56:21.369Z,2.45
2022-11-16T07:01:23.203Z,2.58
2022-11-16T07:06:25.040Z,2.33
2022-11-16T07:11:26.816Z,2.53
2022-11-16T07:16:28.613Z,1.92
2022-11-16T07:21:30.457Z,2.17
2022-11-16T07:26:35.756Z,2.28
2022-11-16T07:31:37.663Z,2.30
2022-11-16T07:36:39.508Z,2.13
2022-11-16T07:41:45.269Z,3.20
2022-11-16T07:46:48.366Z,2.20
2022-11-16T07:51:50.645Z,2.45
2022-11-16T07:56:52.373Z,2.13
2022-11-16T08:01:55.873Z,2.67
2022-11-16T08:06:57.800Z,2.35
2022-11-16T08:12:00.168Z,2.47
2022-11-16T08:17:03.562Z,2.40
2022-11-16T08:22:05.363Z,2.60
2022-11-16T08:27:07.128Z,1.83
2022-11-16T08:32:08.898Z,2.03
2022-11-16T08:37:10.646Z,1.88
2022-11-16T08:42:12.420Z,1.50
2022-11-16T08:47:14.193Z,1.80
2022-11-16T08:52:16.050Z,2.05
2022-11-16T08:57:17.954Z,2.10
2022-11-16T09:02:25.435Z,2.55
2022-11-16T09:07:27.444Z,1.42
2022-11-16T09:12:29.193Z,1.38
2022-11-16T09:17:31.149Z,1.63
2022-11-16T09:22:33.067Z,1.75
2022-11-16T09:27:34.949Z,1.75
2022-11-16T09:32:36.776Z,2.10
2022-11-16T09:37:38.645Z,1.33
2022-11-16T09:43:04.075Z,1.63
2022-11-16T09:48:12.141Z,2.10
2022-11-16T09:53:36.423Z,1.92
2022-11-16T09:59:22.893Z,1.67
2022-11-16T10:04:44.140Z,2.42
2022-11-16T10:09:47.567Z,1.67
2022-11-16T10:15:12.559Z,1.50
2022-11-16T10:20:31.128Z,1.10
2022-11-16T10:26:05.657Z,1.80
2022-11-16T10:31:18.642Z,1.65
2022-11-16T10:36:27.044Z,2.45
2022-11-16T10:41:51.734Z,1.33
2022-11-16T10:47:02.744Z,2.10
2022-11-16T10:52:04.749Z,1.52
2022-11-16T10:57:14.030Z,1.75
2022-11-16T11:02:25.056Z,2.67
2022-11-16T11:07:36.092Z,1.70
2022-11-16T11:12:37.969Z,1.27
2022-11-16T11:17:42.202Z,1.02
2022-11-16T11:22:58.738Z,1.17
2022-11-16T11:28:08.299Z,1.75
2022-11-16T11:33:12.098Z,1.13
2022-11-16T11:38:16.192Z,1.20
2022-11-16T11:43:25.208Z,1.20
2022-11-16T11:48:49.445Z,1.35
2022-11-16T11:54:02.224Z,1.80
2022-11-16T11:59:04.869Z,1.38
2022-11-16T12:04:28.350Z,1.95
2022-11-16T12:09:45.645Z,1.20
2022-11-16T12:14:50.320Z,1.50
2022-11-16T12:20:07.195Z,1.88
2022-11-16T12:25:25.556Z,1.25
2022-11-16T12:30:27.655Z,1.65
2022-11-16T12:35:41.459Z,1.30
2022-11-16T12:41:21.854Z,1.10
2022-11-16T12:46:54.552Z,2.50
2022-11-16T12:52:17.326Z,2.17
2022-11-16T12:57:27.059Z,1.90
2022-11-16T13:02:58.334Z,1.73
2022-11-16T13:08:11.143Z,1.25
2022-11-16T13:13:40.099Z,2.30
2022-11-16T13:18:42.926Z,1.88
2022-11-16T13:24:15.446Z,1.42
2022-11-16T13:29:32.542Z,1.83
2022-11-16T13:34:37.376Z,1.65
2022-11-16T13:39:57.297Z,1.40
2022-11-16T13:45:19.205Z,1.70
2022-11-16T13:50:24.378Z,1.80
2022-11-16T13:55:34.899Z,2.00
2022-11-16T14:00:40.048Z,1.30
2022-11-16T14:05:43.095Z,2.20
2022-11-16T14:10:47.475Z,2.67
2022-11-16T14:16:15.281Z,2.38
2022-11-16T14:21:20.206Z,1.90
2022-11-16T14:27:00.497Z,1.85
2022-11-16T14:32:04.656Z,2.85
2022-11-16T14:37:11.938Z,2.17
2022-11-16T14:42:23.966Z,2.20
2022-11-16T14:47:28.945Z,2.20
2022-11-16T14:52:44.036Z,1.90
2022-11-16T14:57:46.684Z,1.85
2022-11-16T15:02:57.629Z,1.80
2022-11-16T15:08:11.734Z,2.00
2022-11-16T15:13:22.928Z,1.00
2022-11-16T15:18:24.719Z,1.95
2022-11-16T15:23:30.621Z,1.90
2022-11-16T15:28:34.064Z,2.10
2022-11-16T15:33:39.188Z,2.75
2022-11-16T15:38:41.851Z,1.73
2022-11-16T15:44:12.413Z,2.15
2022-11-16T15:49:32.089Z,2.00
2022-11-16T15:55:09.811Z,1.70
2022-11-16T16:00:22.963Z,1.90
2022-11-16T16:05:39.470Z,2.05
2022-11-16T16:10:41.375Z,2.15
2022-11-16T16:15:43.421Z,2.00
2022-11-16T16:20:48.725Z,1.80
2022-11-16T16:25:50.907Z,1.45
2022-11-16T16:30:52.840Z,1.67
2022-11-16T16:35:54.822Z,1.40
2022-11-16T16:41:02.750Z,1.92
2022-11-16T16:46:04.697Z,1.52
2022-11-16T16:51:06.434Z,1.65
2022-11-16T16:56:15.301Z,1.70
2022-11-16T17:01:17.189Z,2.85
2022-11-16T17:06:19.188Z,1.17
2022-11-16T17:11:20.944Z,1.70
2022-11-16T17:16:23.038Z,1.85
2022-11-16T17:21:24.841Z,1.63
2022-11-16T17:26:29.442Z,1.90
2022-11-16T17:31:31.505Z,2.13
2022-11-16T17:36:33.242Z,2.22
2022-11-16T17:41:35.019Z,2.55
2022-11-16T17:46:37.037Z,1.98
2022-11-16T17:51:38.820Z,3.35
2022-11-16T17:56:40.663Z,2.10
2022-11-16T18:01:42.708Z,2.10
2022-11-16T18:06:44.585Z,3.05
2022-11-16T18:11:47.106Z,2.40
2022-11-16T18:16:48.972Z,2.58
2022-11-16T18:21:50.805Z,3.20
2022-11-16T18:26:52.820Z,2.22
2022-11-16T18:31:54.901Z,3.83
2022-11-16T18:36:56.747Z,3.03
2022-11-16T18:41:58.539Z,2.95
2022-11-16T18:47:00.363Z,3.13
2022-11-16T18:52:02.397Z,3.60
2022-11-16T18:57:04.457Z,2.58
2022-11-16T19:02:06.316Z,2.50
2022-11-16T19:07:08.290Z,3.03
2022-11-16T19:12:11.794Z,3.05
2022-11-16T19:17:13.960Z,2.72
2022-11-16T19:22:15.821Z,3.03
2022-11-16T19:27:17.780Z,3.33
2022-11-16T19:32:19.555Z,2.38
2022-11-16T19:37:21.434Z,2.58
2022-11-16T19:42:23.278Z,2.58
2022-11-16T19:47:26.448Z,3.10
2022-11-16T19:52:28.233Z,3.00
2022-11-16T19:57:30.017Z,2.50
2022-11-16T20:02:31.956Z,2.15
2022-11-16T20:07:38.162Z,2.60
2022-11-16T20:12:40.496Z,2.22
2022-11-16T20:17:42.390Z,2.33
2022-11-16T20:22:44.218Z,2.67
2022-11-16T20:27:46.111Z,2.30
2022-11-16T20:32:48.083Z,2.22
2022-11-16T20:37:50.035Z,2.30
2022-11-16T20:42:51.861Z,1.92
2022-11-16T20:47:53.606Z,1.80
2022-11-16T20:52:55.401Z,2.80
2022-11-16T20:57:57.184Z,1.98
2022-11-16T21:02:58.950Z,2.28
2022-11-16T21:08:00.763Z,2.40
2022-11-16T21:13:21.118Z,1.80
2022-11-16T21:18:27.829Z,1.90
2022-11-16T21:23:34.396Z,1.92
2022-11-16T21:28:36.485Z,1.60
2022-11-16T21:33:38.449Z,2.20
2022-11-16T21:38:40.302Z,1.88
2022-11-16T21:43:42.386Z,1.65
2022-11-16T21:48:44.976Z,1.40
2022-11-16T21:53:47.390Z,1.60
2022-11-16T21:58:55.634Z,1.80
2022-11-16T22:04:15.783Z,1.40
2022-11-16T22:09:17.521Z,1.70
2022-11-16T22:14:19.288Z,1.20
2022-11-16T22:19:21.073Z,1.38
2022-11-16T22:24:22.838Z,1.20
2022-11-16T22:29:24.764Z,1.50
2022-11-16T22:34:26.547Z,1.73
2022-11-16T22:39:28.633Z,1.25
2022-11-16T22:44:30.475Z,0.88
2022-11-16T22:49:32.304Z,1.20
2022-11-16T22:54:37.898Z,1.08
2022-11-16T22:59:39.851Z,1.00
2022-11-16T23:04:41.795Z,1.05
2022-11-16T23:09:43.614Z,0.90
2022-11-16T23:15:03.879Z,1.02
2022-11-16T23:20:25.044Z,0.57
2022-11-16T23:25:45.516Z,0.80
2022-11-16T23:30:47.540Z,0.73
2022-11-16T23:35:49.391Z,0.70
2022-11-16T23:40:54.507Z,0.50
2022-11-16T23:45:56.287Z,0.60
2022-11-16T23:50:58.066Z,0.50
2022-11-16T23:56:06.113Z,0.57
